Time;durP1;ratioP1;P1;durP2;ratioP2;P2;SDS_P1;SDS_P2;PMS_P1;PMS_P2;Temp;Humidity;BMP_temperature;BMP_pressure;BME280_temperature;BME280_humidity;BME280_pressure;Samples;Min_cycle;Max_cycle;Signal;HPM_P1;HPM_P2
2023/12/29 00:02:13;;;;;;;3.13;1.17;;;;;;;;;;5077379;28;20701;-82
2023/12/29 00:04:39;;;;;;;4.80;1.30;;;;;;;;;;5077204;28;20471;-81
2023/12/29 00:07:05;;;;;;;9.05;1.60;;;;;;;;;;5077010;28;20400;-81
2023/12/29 00:09:37;;;;;;;8.43;1.50;;;;;;;;;;5077636;28;20695;-81
2023/12/29 00:12:04;;;;;;;4.50;1.48;;;;;;;;;;5077069;28;20837;-81
2023/12/29 00:14:30;;;;;;;4.05;1.40;;;;;;;;;;5075761;28;20216;-81
2023/12/29 00:16:57;;;;;;;3.40;1.30;;;;;;;;;;5076795;28;20181;-81
2023/12/29 00:19:23;;;;;;;5.43;1.48;;;;;;;;;;5075172;28;20517;-81
2023/12/29 00:21:49;;;;;;;7.17;1.47;;;;;;;;;;5076737;28;20231;-81
2023/12/29 00:24:15;;;;;;;7.53;1.30;;;;;;;;;;5076852;28;20421;-81
2023/12/29 00:26:41;;;;;;;4.13;1.20;;;;;;;;;;5076816;28;20440;-81
2023/12/29 00:29:07;;;;;;;7.20;1.20;;;;;;;;;;5076729;28;20172;-81
2023/12/29 00:31:33;;;;;;;7.10;1.63;;;;;;;;;;5076709;28;20871;-81
2023/12/29 00:33:59;;;;;;;4.13;1.50;;;;;;;;;;5076563;28;20215;-81
2023/12/29 00:36:25;;;;;;;3.30;1.20;;;;;;;;;;5076278;28;20441;-81
2023/12/29 00:38:51;;;;;;;2.20;1.15;;;;;;;;;;5076381;28;20423;-82
2023/12/29 00:41:17;;;;;;;5.00;1.30;;;;;;;;;;5075213;28;20176;-81
2023/12/29 00:43:43;;;;;;;8.00;1.80;;;;;;;;;;5075115;28;20418;-81
2023/12/29 00:46:09;;;;;;;5.50;1.93;;;;;;;;;;5076217;28;20391;-82
2023/12/29 00:48:35;;;;;;;2.88;1.70;;;;;;;;;;5075073;28;20415;-81
2023/12/29 00:51:02;;;;;;;7.75;2.17;;;;;;;;;;5076217;28;20176;-84
2023/12/29 00:53:32;;;;;;;12.63;1.90;;;;;;;;;;5076100;28;20204;-81
2023/12/29 00:55:58;;;;;;;3.30;1.30;;;;;;;;;;5076409;28;20514;-81
2023/12/29 00:58:24;;;;;;;5.07;1.42;;;;;;;;;;5076458;28;20189;-81
2023/12/29 01:00:50;;;;;;;3.53;1.38;;;;;;;;;;5076774;28;20188;-81
2023/12/29 01:03:16;;;;;;;5.22;1.58;;;;;;;;;;5074695;28;20215;-81
2023/12/29 01:05:42;;;;;;;4.77;1.93;;;;;;;;;;5075040;28;20214;-80
2023/12/29 01:08:08;;;;;;;4.27;1.87;;;;;;;;;;5075632;28;20498;-81
2023/12/29 01:10:34;;;;;;;4.17;1.90;;;;;;;;;;5076270;28;20415;-81
2023/12/29 01:13:00;;;;;;;6.23;1.97;;;;;;;;;;5058464;28;20935;-81
2023/12/29 01:15:26;;;;;;;6.63;1.70;;;;;;;;;;5076010;28;20595;-81
2023/12/29 01:17:52;;;;;;;6.60;1.73;;;;;;;;;;5076108;28;20304;-81
2023/12/29 01:20:18;;;;;;;6.87;1.60;;;;;;;;;;5074458;28;20408;-82
2023/12/29 01:22:44;;;;;;;2.60;1.30;;;;;;;;;;5074711;28;20430;-82
2023/12/29 01:25:10;;;;;;;3.20;1.20;;;;;;;;;;5076658;28;20516;-82
2023/12/29 01:27:36;;;;;;;6.65;1.65;;;;;;;;;;5075778;28;20411;-82
2023/12/29 01:30:02;;;;;;;4.13;1.23;;;;;;;;;;5076151;28;20532;-81
2023/12/29 01:32:28;;;;;;;4.93;1.40;;;;;;;;;;5075651;28;20407;-81
2023/12/29 01:34:54;;;;;;;6.07;1.30;;;;;;;;;;5075333;28;20231;-81
2023/12/29 01:37:20;;;;;;;7.07;1.55;;;;;;;;;;5074471;28;20529;-81
2023/12/29 01:39:46;;;;;;;5.43;1.30;;;;;;;;;;5075811;28;20672;-81
2023/12/29 01:42:11;;;;;;;7.87;1.33;;;;;;;;;;5075247;28;20177;-82
2023/12/29 01:44:37;;;;;;;6.10;1.50;;;;;;;;;;5075788;28;20904;-81
2023/12/29 01:47:05;;;;;;;4.17;2.03;;;;;;;;;;5075612;28;20429;-81
2023/12/29 01:49:31;;;;;;;3.65;1.10;;;;;;;;;;5075111;28;20545;-81
2023/12/29 01:51:59;;;;;;;3.65;1.75;;;;;;;;;;5075148;28;20256;-81
2023/12/29 01:54:26;;;;;;;6.72;2.25;;;;;;;;;;5074548;28;20244;-82
2023/12/29 01:56:55;;;;;;;6.55;1.35;;;;;;;;;;5074274;28;20552;-81
2023/12/29 01:59:21;;;;;;;4.32;1.20;;;;;;;;;;5075976;28;20188;-80
2023/12/29 02:01:47;;;;;;;5.88;1.40;;;;;;;;;;5076037;28;20535;-81
2023/12/29 02:04:13;;;;;;;4.63;1.45;;;;;;;;;;5073616;28;20193;-81
2023/12/29 02:06:40;;;;;;;2.33;1.10;;;;;;;;;;5075589;28;20527;-81
2023/12/29 02:09:06;;;;;;;4.82;1.30;;;;;;;;;;5075359;28;20188;-83
2023/12/29 02:11:32;;;;;;;5.43;1.13;;;;;;;;;;5075638;28;20181;-80
2023/12/29 02:13:59;;;;;;;5.72;1.73;;;;;;;;;;5075066;28;20610;-81
2023/12/29 02:16:33;;;;;;;5.10;1.65;;;;;;;;;;5075084;28;20256;-81
2023/12/29 02:19:00;;;;;;;3.55;1.58;;;;;;;;;;5075022;28;20177;-81
2023/12/29 02:21:26;;;;;;;8.93;1.90;;;;;;;;;;5075492;28;21087;-81
2023/12/29 02:23:52;;;;;;;5.50;1.70;;;;;;;;;;5073788;28;20235;-81
2023/12/29 02:26:21;;;;;;;4.40;1.73;;;;;;;;;;5074821;28;20884;-81
2023/12/29 02:28:51;;;;;;;4.43;1.60;;;;;;;;;;5075411;28;20399;-81
2023/12/29 02:31:21;;;;;;;3.33;1.23;;;;;;;;;;5073431;28;20185;-81
2023/12/29 02:33:48;;;;;;;4.40;1.38;;;;;;;;;;5074863;28;20660;-81
2023/12/29 02:36:15;;;;;;;6.20;1.63;;;;;;;;;;5074418;28;20223;-81
2023/12/29 02:38:41;;;;;;;3.13;1.20;;;;;;;;;;5074589;28;20538;-81
2023/12/29 02:41:07;;;;;;;3.92;1.38;;;;;;;;;;5074892;28;20198;-81
2023/12/29 02:43:33;;;;;;;7.88;1.77;;;;;;;;;;5073512;28;20545;-81
2023/12/29 02:45:59;;;;;;;3.63;1.13;;;;;;;;;;5074450;28;20183;-81
2023/12/29 02:48:25;;;;;;;5.97;1.70;;;;;;;;;;5074542;28;20400;-82
2023/12/29 02:50:51;;;;;;;4.47;1.30;;;;;;;;;;5075194;28;20235;-81
2023/12/29 02:53:17;;;;;;;5.60;1.43;;;;;;;;;;5074258;28;20407;-81
2023/12/29 02:55:43;;;;;;;2.77;1.30;;;;;;;;;;5073443;28;20411;-81
2023/12/29 02:58:09;;;;;;;1.40;0.93;;;;;;;;;;5074323;28;20399;-83
2023/12/29 03:00:35;;;;;;;5.25;1.75;;;;;;;;;;5072865;28;20776;-82
2023/12/29 03:03:01;;;;;;;5.97;1.67;;;;;;;;;;5073135;28;20185;-81
2023/12/29 03:05:27;;;;;;;2.30;1.40;;;;;;;;;;5074483;28;20825;-82
2023/12/29 03:07:53;;;;;;;5.17;2.30;;;;;;;;;;5078663;28;20415;-81
2023/12/29 03:10:19;;;;;;;4.28;1.50;;;;;;;;;;5060299;28;20418;-79
2023/12/29 03:12:45;;;;;;;2.40;1.40;;;;;;;;;;5077547;28;20256;-79
2023/12/29 03:15:11;;;;;;;11.97;1.73;;;;;;;;;;5078456;28;20290;-81
2023/12/29 03:17:37;;;;;;;6.03;2.67;;;;;;;;;;5078697;28;20822;-81
2023/12/29 03:20:04;;;;;;;6.57;1.73;;;;;;;;;;5078670;28;20418;-80
2023/12/29 03:22:30;;;;;;;5.70;1.65;;;;;;;;;;5076811;28;20429;-81
2023/12/29 03:24:56;;;;;;;4.57;1.40;;;;;;;;;;5078593;28;20244;-81
2023/12/29 03:27:22;;;;;;;3.47;1.50;;;;;;;;;;5076365;28;20213;-81
2023/12/29 03:29:48;;;;;;;2.70;1.67;;;;;;;;;;5077908;28;20407;-81
2023/12/29 03:32:15;;;;;;;2.60;1.20;;;;;;;;;;5077970;28;20415;-81
2023/12/29 03:34:41;;;;;;;2.88;1.42;;;;;;;;;;5077101;28;20474;-81
2023/12/29 03:37:07;;;;;;;9.50;1.90;;;;;;;;;;5077914;28;20251;-80
2023/12/29 03:39:35;;;;;;;9.03;1.73;;;;;;;;;;5076746;28;20439;-81
2023/12/29 03:42:01;;;;;;;2.72;0.98;;;;;;;;;;5076359;28;20423;-81
2023/12/29 03:44:27;;;;;;;4.40;1.50;;;;;;;;;;5076547;28;20191;-81
2023/12/29 03:46:53;;;;;;;4.33;1.53;;;;;;;;;;5077764;28;20176;-82
2023/12/29 03:49:19;;;;;;;10.07;1.67;;;;;;;;;;5076944;28;20462;-81
2023/12/29 03:51:46;;;;;;;5.78;1.75;;;;;;;;;;5077612;28;20862;-82
2023/12/29 03:54:12;;;;;;;6.32;1.35;;;;;;;;;;5077228;28;20213;-86
2023/12/29 03:56:38;;;;;;;8.05;1.73;;;;;;;;;;5077462;28;20180;-82
2023/12/29 03:59:04;;;;;;;3.60;2.00;;;;;;;;;;5075906;28;20234;-82
2023/12/29 04:01:30;;;;;;;4.13;1.33;;;;;;;;;;5077106;28;20234;-81
2023/12/29 04:03:56;;;;;;;4.22;1.80;;;;;;;;;;5077067;28;20490;-82
2023/12/29 04:06:22;;;;;;;6.33;1.43;;;;;;;;;;5077131;28;20208;-81
2023/12/29 04:08:48;;;;;;;5.13;1.70;;;;;;;;;;5077666;28;20408;-82
2023/12/29 04:11:14;;;;;;;5.30;1.67;;;;;;;;;;5076879;28;20454;-84
2023/12/29 04:13:40;;;;;;;3.87;1.80;;;;;;;;;;5075635;28;21032;-82
2023/12/29 04:16:06;;;;;;;4.53;1.80;;;;;;;;;;5076239;28;20822;-82
2023/12/29 04:18:32;;;;;;;8.05;1.30;;;;;;;;;;5076520;28;20468;-82
2023/12/29 04:20:58;;;;;;;3.70;1.77;;;;;;;;;;5076900;28;20625;-82
2023/12/29 04:23:24;;;;;;;3.53;1.40;;;;;;;;;;5076897;28;20789;-82
2023/12/29 04:25:50;;;;;;;4.72;1.83;;;;;;;;;;5075983;28;20895;-82
2023/12/29 04:28:16;;;;;;;4.60;1.27;;;;;;;;;;5076633;28;20173;-82
2023/12/29 04:30:41;;;;;;;4.03;1.20;;;;;;;;;;5076515;28;20176;-82
2023/12/29 04:33:07;;;;;;;6.73;1.30;;;;;;;;;;5076395;28;20403;-82
2023/12/29 04:35:33;;;;;;;3.13;1.60;;;;;;;;;;5076576;28;20923;-82
2023/12/29 04:37:59;;;;;;;6.57;1.60;;;;;;;;;;5077084;28;20188;-82
2023/12/29 04:40:25;;;;;;;6.13;1.37;;;;;;;;;;5075165;28;20781;-82
2023/12/29 04:42:51;;;;;;;5.90;1.40;;;;;;;;;;5075278;28;20408;-81
2023/12/29 04:45:17;;;;;;;4.07;1.00;;;;;;;;;;5076253;28;20494;-82
2023/12/29 04:47:43;;;;;;;6.87;1.97;;;;;;;;;;5058910;28;20476;-82
2023/12/29 04:50:09;;;;;;;5.77;2.00;;;;;;;;;;5076426;28;20505;-81
2023/12/29 04:52:35;;;;;;;1.25;0.95;;;;;;;;;;5076373;28;21359;-82
2023/12/29 04:55:01;;;;;;;5.07;2.15;;;;;;;;;;5074946;28;20288;-82
2023/12/29 04:57:27;;;;;;;3.07;1.43;;;;;;;;;;5074942;28;20221;-81
2023/12/29 04:59:53;;;;;;;2.30;1.27;;;;;;;;;;5075247;28;20407;-81
2023/12/29 05:02:19;;;;;;;5.78;2.15;;;;;;;;;;5076112;28;20392;-81
2023/12/29 05:04:46;;;;;;;3.13;0.95;;;;;;;;;;5076379;28;20595;-81
2023/12/29 05:07:12;;;;;;;6.30;1.60;;;;;;;;;;5076303;28;20172;-81
2023/12/29 05:09:38;;;;;;;7.20;1.37;;;;;;;;;;5074697;28;20199;-82
2023/12/29 05:12:04;;;;;;;5.20;1.40;;;;;;;;;;5075956;28;20411;-81
2023/12/29 05:14:30;;;;;;;6.63;1.73;;;;;;;;;;5075890;28;20471;-81
2023/12/29 05:16:56;;;;;;;5.07;1.70;;;;;;;;;;5076024;28;20177;-81
2023/12/29 05:19:22;;;;;;;5.93;1.77;;;;;;;;;;5075805;28;20758;-82
2023/12/29 05:21:51;;;;;;;2.50;1.30;;;;;;;;;;5075774;28;20425;-81
2023/12/29 05:24:16;;;;;;;1.65;1.08;;;;;;;;;;5075490;28;20411;-81
2023/12/29 05:26:42;;;;;;;9.43;1.40;;;;;;;;;;5074666;28;20181;-81
2023/12/29 05:29:09;;;;;;;4.00;1.10;;;;;;;;;;5075235;28;20913;-81
2023/12/29 05:31:34;;;;;;;3.80;1.40;;;;;;;;;;5075664;28;20791;-81
2023/12/29 05:34:00;;;;;;;6.43;1.57;;;;;;;;;;5074721;28;20291;-81
2023/12/29 05:36:26;;;;;;;2.53;0.90;;;;;;;;;;5075319;28;20895;-81
2023/12/29 05:38:52;;;;;;;8.77;2.27;;;;;;;;;;5075251;28;20910;-81
2023/12/29 05:41:19;;;;;;;3.38;1.13;;;;;;;;;;5074188;28;20411;-84
2023/12/29 05:43:45;;;;;;;7.22;1.45;;;;;;;;;;5075790;28;20306;-81
2023/12/29 05:46:11;;;;;;;3.85;1.73;;;;;;;;;;5074530;28;20192;-81
2023/12/29 05:48:38;;;;;;;6.35;1.88;;;;;;;;;;5075071;28;20177;-81
2023/12/29 05:51:10;;;;;;;8.90;1.40;;;;;;;;;;5075522;28;20563;-81
2023/12/29 05:53:36;;;;;;;5.68;1.80;;;;;;;;;;5075195;28;20181;-81
2023/12/29 05:56:03;;;;;;;2.50;1.45;;;;;;;;;;5074990;28;20173;-81
2023/12/29 05:58:29;;;;;;;4.40;1.48;;;;;;;;;;5075133;28;20177;-81
2023/12/29 06:01:01;;;;;;;4.80;1.60;;;;;;;;;;5075340;28;20655;-81
2023/12/29 06:03:27;;;;;;;9.45;1.70;;;;;;;;;;5075024;28;20407;-82
2023/12/29 06:05:54;;;;;;;7.35;1.35;;;;;;;;;;5075246;28;20259;-82
2023/12/29 06:08:20;;;;;;;2.75;1.20;;;;;;;;;;5073696;28;20185;-84
2023/12/29 06:10:46;;;;;;;4.00;1.83;;;;;;;;;;5074106;28;20188;-81
2023/12/29 06:13:12;;;;;;;3.50;1.37;;;;;;;;;;5073789;28;20177;-81
2023/12/29 06:15:38;;;;;;;7.10;1.33;;;;;;;;;;5073090;28;20474;-81
2023/12/29 06:18:05;;;;;;;7.38;1.55;;;;;;;;;;5073356;28;20181;-81
2023/12/29 06:20:31;;;;;;;4.15;1.38;;;;;;;;;;5074711;28;20629;-81
2023/12/29 06:22:57;;;;;;;2.60;1.10;;;;;;;;;;5075521;28;20207;-82
2023/12/29 06:25:23;;;;;;;5.05;1.50;;;;;;;;;;5074718;28;20847;-82
2023/12/29 06:27:49;;;;;;;4.10;1.63;;;;;;;;;;5075527;28;20574;-82
2023/12/29 06:30:15;;;;;;;4.85;1.88;;;;;;;;;;5075022;28;20242;-81
2023/12/29 06:32:41;;;;;;;6.88;1.30;;;;;;;;;;5074916;28;20191;-81
2023/12/29 06:35:09;;;;;;;4.70;1.88;;;;;;;;;;5074876;28;20223;-81
2023/12/29 06:37:36;;;;;;;9.45;1.35;;;;;;;;;;5074806;28;20173;-81
2023/12/29 06:40:03;;;;;;;4.38;1.40;;;;;;;;;;5075229;28;20192;-81
2023/12/29 06:42:29;;;;;;;3.40;1.65;;;;;;;;;;5074724;28;20196;-82
2023/12/29 06:44:55;;;;;;;4.57;1.45;;;;;;;;;;5075007;28;20206;-82
2023/12/29 06:47:21;;;;;;;6.60;1.73;;;;;;;;;;5074582;28;20173;-81
2023/12/29 06:49:47;;;;;;;10.85;1.60;;;;;;;;;;5074324;28;20467;-81
2023/12/29 06:52:13;;;;;;;4.60;1.20;;;;;;;;;;5073454;28;20284;-81
2023/12/29 06:54:39;;;;;;;4.00;1.37;;;;;;;;;;5074512;28;20459;-81
2023/12/29 06:57:05;;;;;;;1.93;1.03;;;;;;;;;;5073607;28;20411;-82
2023/12/29 06:59:31;;;;;;;2.95;1.25;;;;;;;;;;5072722;28;20411;-82
2023/12/29 07:01:57;;;;;;;8.43;1.23;;;;;;;;;;5075081;28;20177;-82
2023/12/29 07:04:23;;;;;;;4.43;1.37;;;;;;;;;;5074270;28;20415;-85
2023/12/29 07:06:49;;;;;;;4.27;1.50;;;;;;;;;;5073564;28;20418;-82
2023/12/29 07:09:15;;;;;;;3.07;1.40;;;;;;;;;;5074999;28;20431;-81
2023/12/29 07:11:41;;;;;;;3.83;1.35;;;;;;;;;;5074363;28;20786;-81
2023/12/29 07:14:07;;;;;;;3.22;1.02;;;;;;;;;;5074432;28;20292;-81
2023/12/29 07:16:33;;;;;;;2.80;1.20;;;;;;;;;;5072837;28;20188;-82
2023/12/29 07:18:59;;;;;;;4.77;1.20;;;;;;;;;;5074045;28;20187;-81
2023/12/29 07:21:25;;;;;;;4.37;1.50;;;;;;;;;;5074336;28;20429;-82
2023/12/29 07:23:51;;;;;;;1.53;1.10;;;;;;;;;;5074554;28;20425;-81
2023/12/29 07:26:17;;;;;;;3.27;1.27;;;;;;;;;;5072859;28;20433;-81
2023/12/29 07:28:43;;;;;;;3.57;0.93;;;;;;;;;;5073254;28;20823;-81
2023/12/29 07:31:09;;;;;;;2.77;1.10;;;;;;;;;;5074987;28;20433;-81
2023/12/29 07:33:35;;;;;;;4.50;1.15;;;;;;;;;;5074022;28;20800;-81
2023/12/29 07:36:01;;;;;;;2.60;1.00;;;;;;;;;;5074717;28;20181;-81
2023/12/29 07:38:27;;;;;;;1.63;0.70;;;;;;;;;;5072929;28;20418;-81
2023/12/29 07:40:53;;;;;;;8.43;1.10;;;;;;;;;;5074445;28;20541;-81
2023/12/29 07:43:19;;;;;;;5.17;1.47;;;;;;;;;;5073038;28;20406;-81
2023/12/29 07:45:45;;;;;;;1.63;1.17;;;;;;;;;;5074150;28;20411;-80
2023/12/29 07:48:11;;;;;;;1.70;1.17;;;;;;;;;;5073598;28;20404;-81
2023/12/29 07:50:37;;;;;;;4.70;1.20;;;;;;;;;;5074314;28;20235;-81
2023/12/29 07:53:03;;;;;;;2.67;1.40;;;;;;;;;;5077503;28;20611;-80
2023/12/29 07:55:30;;;;;;;1.88;0.85;;;;;;;;;;5078378;28;20506;-81
2023/12/29 07:57:56;;;;;;;1.90;0.95;;;;;;;;;;5078940;28;20179;-80
2023/12/29 08:00:23;;;;;;;2.97;1.13;;;;;;;;;;5078644;28;20252;-80
2023/12/29 08:02:49;;;;;;;6.93;1.17;;;;;;;;;;5078320;28;20418;-80
2023/12/29 08:05:16;;;;;;;1.98;1.00;;;;;;;;;;5077468;28;20181;-80
2023/12/29 08:07:42;;;;;;;6.43;1.20;;;;;;;;;;5078560;28;20550;-79
2023/12/29 08:10:09;;;;;;;5.53;1.10;;;;;;;;;;5078558;28;20219;-80
2023/12/29 08:12:35;;;;;;;4.18;1.00;;;;;;;;;;5077356;28;20185;-82
2023/12/29 08:15:02;;;;;;;8.48;1.85;;;;;;;;;;5077233;28;20668;-82
2023/12/29 08:17:28;;;;;;;4.97;1.23;;;;;;;;;;5075690;28;20272;-82
2023/12/29 08:19:54;;;;;;;5.35;1.65;;;;;;;;;;5077453;28;20200;-82
2023/12/29 08:22:20;;;;;;;3.28;1.30;;;;;;;;;;5076752;28;20520;-82
2023/12/29 08:24:47;;;;;;;3.83;0.90;;;;;;;;;;5076962;28;20261;-82
2023/12/29 08:27:13;;;;;;;3.38;0.98;;;;;;;;;;5077341;28;20254;-82
2023/12/29 08:29:39;;;;;;;8.15;1.95;;;;;;;;;;5077967;28;20169;-83
2023/12/29 08:32:05;;;;;;;9.20;1.77;;;;;;;;;;5076541;28;20171;-82
2023/12/29 08:34:31;;;;;;;4.95;1.38;;;;;;;;;;5076293;28;20454;-83
2023/12/29 08:36:57;;;;;;;13.20;2.28;;;;;;;;;;5076835;28;20169;-82
2023/12/29 08:39:24;;;;;;;3.57;1.83;;;;;;;;;;5076771;28;20168;-82
2023/12/29 08:41:50;;;;;;;7.07;1.77;;;;;;;;;;5076111;28;20448;-83
2023/12/29 08:44:16;;;;;;;5.65;1.60;;;;;;;;;;5076044;28;20187;-83
2023/12/29 08:46:42;;;;;;;4.40;1.40;;;;;;;;;;5075995;28;20185;-83
2023/12/29 08:49:08;;;;;;;4.03;1.35;;;;;;;;;;5075676;28;20504;-83
2023/12/29 08:51:35;;;;;;;5.97;1.47;;;;;;;;;;5076034;28;20264;-83
2023/12/29 08:54:01;;;;;;;9.18;2.25;;;;;;;;;;5076035;28;20938;-83
2023/12/29 08:56:29;;;;;;;6.80;1.70;;;;;;;;;;5076079;28;20259;-83
2023/12/29 08:58:55;;;;;;;4.28;1.17;;;;;;;;;;5075730;28;20407;-83
2023/12/29 09:01:21;;;;;;;5.85;1.77;;;;;;;;;;5076159;28;20198;-83
2023/12/29 09:03:47;;;;;;;7.55;1.90;;;;;;;;;;5073622;28;20195;-83
2023/12/29 09:06:13;;;;;;;5.00;1.77;;;;;;;;;;5076303;28;20173;-83
2023/12/29 09:08:39;;;;;;;3.08;1.33;;;;;;;;;;5075321;28;20415;-84
2023/12/29 09:11:05;;;;;;;3.33;1.10;;;;;;;;;;5075401;28;20274;-83
2023/12/29 09:13:31;;;;;;;2.95;1.23;;;;;;;;;;5074295;28;20605;-85
2023/12/29 09:15:59;;;;;;;6.45;1.35;;;;;;;;;;5075945;28;20172;-84
2023/12/29 09:18:25;;;;;;;3.05;1.48;;;;;;;;;;5075582;28;20177;-84
2023/12/29 09:20:51;;;;;;;4.30;1.20;;;;;;;;;;5075253;28;20271;-84
2023/12/29 09:23:17;;;;;;;1.98;0.98;;;;;;;;;;5075541;28;20165;-84
2023/12/29 09:25:43;;;;;;;6.78;1.25;;;;;;;;;;5075449;28;20181;-85
2023/12/29 09:28:09;;;;;;;5.72;1.13;;;;;;;;;;5075165;28;20179;-84
2023/12/29 09:30:35;;;;;;;2.30;1.10;;;;;;;;;;5075057;28;20195;-85
2023/12/29 09:33:01;;;;;;;4.83;1.50;;;;;;;;;;5074599;28;20177;-85
2023/12/29 09:35:27;;;;;;;2.60;1.27;;;;;;;;;;5074020;28;20477;-85
2023/12/29 09:37:53;;;;;;;6.20;1.33;;;;;;;;;;5075149;28;20407;-85
2023/12/29 09:40:19;;;;;;;3.63;0.80;;;;;;;;;;5075958;28;20414;-84
2023/12/29 09:42:45;;;;;;;3.67;1.30;;;;;;;;;;5074751;28;20448;-85
2023/12/29 09:45:13;;;;;;;2.75;1.30;;;;;;;;;;5075279;28;20242;-84
2023/12/29 09:47:39;;;;;;;2.25;0.85;;;;;;;;;;5074206;28;20173;-85
2023/12/29 09:50:05;;;;;;;4.82;1.38;;;;;;;;;;5073995;28;20286;-84
2023/12/29 09:52:32;;;;;;;5.68;1.30;;;;;;;;;;5074324;28;20195;-84
2023/12/29 09:54:58;;;;;;;1.85;1.10;;;;;;;;;;5074524;28;20349;-85
2023/12/29 09:57:25;;;;;;;4.97;1.60;;;;;;;;;;5075530;28;20235;-84
2023/12/29 09:59:51;;;;;;;6.53;0.90;;;;;;;;;;5075539;28;20193;-84
2023/12/29 10:02:18;;;;;;;3.63;1.20;;;;;;;;;;5074625;28;20238;-85
2023/12/29 10:04:44;;;;;;;1.42;0.90;;;;;;;;;;5075231;28;20191;-85
2023/12/29 10:07:12;;;;;;;2.22;1.00;;;;;;;;;;5075665;28;20598;-83
2023/12/29 10:09:40;;;;;;;1.77;1.17;;;;;;;;;;5074799;28;20172;-84
2023/12/29 10:12:09;;;;;;;1.20;0.90;;;;;;;;;;5075186;28;20176;-83
2023/12/29 10:14:42;;;;;;;2.95;0.70;;;;;;;;;;5074475;28;20568;-86
2023/12/29 10:17:10;;;;;;;4.25;1.25;;;;;;;;;;5075386;28;20169;-84
2023/12/29 10:19:40;;;;;;;3.63;1.42;;;;;;;;;;5075389;28;20187;-84
2023/12/29 10:22:12;;;;;;;2.45;0.90;;;;;;;;;;5074508;28;20222;-83
2023/12/29 10:24:38;;;;;;;5.63;1.60;;;;;;;;;;5075290;28;20173;-84
2023/12/29 10:27:04;;;;;;;1.65;0.80;;;;;;;;;;5073774;28;20204;-83
2023/12/29 10:29:32;;;;;;;2.75;1.60;;;;;;;;;;5075044;28;20263;-82
2023/12/29 10:31:58;;;;;;;1.55;0.70;;;;;;;;;;5074858;28;20168;-82
2023/12/29 10:34:31;;;;;;;2.95;0.80;;;;;;;;;;5074707;28;20197;-82
2023/12/29 10:36:58;;;;;;;2.00;0.75;;;;;;;;;;5074429;28;20214;-82
2023/12/29 10:39:25;;;;;;;2.45;0.82;;;;;;;;;;5075188;28;20223;-82
2023/12/29 10:42:02;;;;;;;4.15;1.23;;;;;;;;;;5074311;28;20189;-82
2023/12/29 10:44:28;;;;;;;4.40;0.73;;;;;;;;;;5075066;28;20272;-82
2023/12/29 10:46:54;;;;;;;1.00;0.70;;;;;;;;;;5073480;28;20196;-82
2023/12/29 10:49:20;;;;;;;5.70;1.00;;;;;;;;;;5073978;28;20516;-82
2023/12/29 10:51:46;;;;;;;7.25;1.08;;;;;;;;;;5073616;28;20769;-82
2023/12/29 10:54:24;;;;;;;2.67;1.17;;;;;;;;;;5075513;28;20204;-82
2023/12/29 10:57:03;;;;;;;3.92;1.17;;;;;;;;;;5074459;28;20165;-82
2023/12/29 10:59:29;;;;;;;1.58;0.70;;;;;;;;;;5075252;28;20185;-82
2023/12/29 11:01:55;;;;;;;2.95;0.70;;;;;;;;;;5074660;28;20169;-82
2023/12/29 11:04:24;;;;;;;5.90;1.08;;;;;;;;;;5074984;28;20582;-81
2023/12/29 11:06:51;;;;;;;2.50;0.75;;;;;;;;;;5074548;28;20169;-82
2023/12/29 11:09:30;;;;;;;2.30;0.88;;;;;;;;;;5073300;28;20180;-81
2023/12/29 11:12:05;;;;;;;4.25;0.80;;;;;;;;;;5074633;28;20165;-82
2023/12/29 11:14:35;;;;;;;2.03;1.13;;;;;;;;;;5077115;28;20197;-80
2023/12/29 11:17:01;;;;;;;2.50;0.75;;;;;;;;;;5074551;28;20172;-81
2023/12/29 11:19:28;;;;;;;2.92;1.85;;;;;;;;;;5074657;28;20625;-81
2023/12/29 11:21:55;;;;;;;6.18;0.98;;;;;;;;;;5074788;28;20234;-81
2023/12/29 11:24:22;;;;;;;2.92;0.90;;;;;;;;;;5075999;28;20173;-81
2023/12/29 11:26:51;;;;;;;1.50;0.63;;;;;;;;;;5078769;28;20237;-81
2023/12/29 11:29:17;;;;;;;4.80;0.98;;;;;;;;;;5083395;28;20624;-81
2023/12/29 11:31:45;;;;;;;2.28;0.80;;;;;;;;;;5082040;28;20213;-83
2023/12/29 11:34:21;;;;;;;6.65;1.00;;;;;;;;;;5080255;28;20299;-81
2023/12/29 11:36:47;;;;;;;1.70;0.70;;;;;;;;;;5079230;28;20161;-81
2023/12/29 11:39:13;;;;;;;3.75;0.90;;;;;;;;;;5078524;28;20169;-81
2023/12/29 11:41:58;;;;;;;1.77;0.60;;;;;;;;;;5077848;28;20229;-83
2023/12/29 11:44:27;;;;;;;1.40;0.95;;;;;;;;;;5078846;28;20188;-81
2023/12/29 11:46:53;;;;;;;2.13;0.80;;;;;;;;;;5076736;28;20180;-81
2023/12/29 11:49:20;;;;;;;2.75;0.88;;;;;;;;;;5077849;28;20260;-81
2023/12/29 11:51:50;;;;;;;3.80;0.70;;;;;;;;;;5078604;28;20628;-82
2023/12/29 11:54:23;;;;;;;5.13;0.82;;;;;;;;;;5078480;28;20212;-81
2023/12/29 11:56:49;;;;;;;1.33;0.80;;;;;;;;;;5078292;28;20205;-82
2023/12/29 11:59:16;;;;;;;3.80;1.27;;;;;;;;;;5078116;28;20165;-82
2023/12/29 12:01:42;;;;;;;2.50;0.70;;;;;;;;;;5077404;28;20203;-82
2023/12/29 12:04:27;;;;;;;2.53;0.70;;;;;;;;;;5078153;28;20542;-80
2023/12/29 12:06:53;;;;;;;1.40;0.70;;;;;;;;;;5077962;28;20425;-80
2023/12/29 12:09:25;;;;;;;0.93;0.60;;;;;;;;;;5077670;28;20180;-82
2023/12/29 12:11:51;;;;;;;2.65;0.90;;;;;;;;;;5077263;28;20407;-82
2023/12/29 12:14:36;;;;;;;5.40;1.60;;;;;;;;;;5077209;28;20633;-81
2023/12/29 12:17:02;;;;;;;1.40;0.95;;;;;;;;;;5077252;28;20181;-81
2023/12/29 12:19:35;;;;;;;1.10;0.90;;;;;;;;;;5077615;28;20230;-81
2023/12/29 12:22:00;;;;;;;1.33;0.75;;;;;;;;;;5076095;28;20223;-81
2023/12/29 12:24:27;;;;;;;4.13;0.87;;;;;;;;;;5077371;28;20206;-81
2023/12/29 12:26:54;;;;;;;1.58;0.98;;;;;;;;;;5077215;28;20438;-81
2023/12/29 12:29:20;;;;;;;2.55;1.05;;;;;;;;;;5075792;28;20641;-82
2023/12/29 12:31:53;;;;;;;1.20;0.65;;;;;;;;;;5059203;28;20180;-82
2023/12/29 12:34:19;;;;;;;0.80;0.60;;;;;;;;;;5076978;28;20208;-81
2023/12/29 12:36:51;;;;;;;1.55;0.70;;;;;;;;;;5076732;28;20271;-81
2023/12/29 12:39:18;;;;;;;1.17;0.70;;;;;;;;;;5076478;28;20177;-81
2023/12/29 12:41:44;;;;;;;1.05;0.50;;;;;;;;;;5075004;28;20181;-83
2023/12/29 12:44:14;;;;;;;1.10;0.60;;;;;;;;;;5076282;28;20589;-82
2023/12/29 12:46:42;;;;;;;1.13;0.73;;;;;;;;;;5075574;28;20185;-81
2023/12/29 12:49:08;;;;;;;0.80;0.60;;;;;;;;;;5075243;28;20237;-82
2023/12/29 12:51:34;;;;;;;1.00;0.63;;;;;;;;;;5077089;28;20173;-81
2023/12/29 12:54:01;;;;;;;0.80;0.50;;;;;;;;;;5076501;28;20250;-81
2023/12/29 12:56:27;;;;;;;1.35;0.75;;;;;;;;;;5075519;28;20921;-81
2023/12/29 12:58:55;;;;;;;1.63;0.70;;;;;;;;;;5075646;28;20194;-81
2023/12/29 13:01:22;;;;;;;1.35;0.60;;;;;;;;;;5076975;28;20172;-81
2023/12/29 13:03:48;;;;;;;0.70;0.52;;;;;;;;;;5076567;28;20177;-82
2023/12/29 13:06:14;;;;;;;0.80;0.60;;;;;;;;;;5075531;28;20621;-82
2023/12/29 13:08:40;;;;;;;0.85;0.63;;;;;;;;;;5076716;28;20183;-81
2023/12/29 13:11:06;;;;;;;1.88;0.73;;;;;;;;;;5076336;28;20256;-82
2023/12/29 13:13:45;;;;;;;1.58;0.80;;;;;;;;;;5076592;28;20653;-82
2023/12/29 13:16:13;;;;;;;2.10;0.80;;;;;;;;;;5075345;28;20648;-82
2023/12/29 13:18:39;;;;;;;1.35;0.63;;;;;;;;;;5076411;28;20191;-82
2023/12/29 13:21:06;;;;;;;1.48;0.68;;;;;;;;;;5074935;28;20754;-82
2023/12/29 13:23:32;;;;;;;1.08;0.80;;;;;;;;;;5076169;28;20255;-82
2023/12/29 13:26:00;;;;;;;1.92;0.70;;;;;;;;;;5075270;28;20597;-82
2023/12/29 13:28:27;;;;;;;1.10;0.63;;;;;;;;;;5076403;28;20164;-81
2023/12/29 13:30:54;;;;;;;3.35;1.10;;;;;;;;;;5076154;28;20224;-82
2023/12/29 13:33:25;;;;;;;1.98;0.90;;;;;;;;;;5079414;28;20588;-81
2023/12/29 13:35:55;;;;;;;1.20;0.95;;;;;;;;;;5078307;28;20253;-82
2023/12/29 13:38:29;;;;;;;2.20;0.90;;;;;;;;;;5076259;28;20646;-81
2023/12/29 13:40:59;;;;;;;3.38;0.70;;;;;;;;;;5074436;28;20656;-81
2023/12/29 13:43:25;;;;;;;2.33;0.80;;;;;;;;;;5075808;28;20195;-81
2023/12/29 13:45:51;;;;;;;1.08;0.70;;;;;;;;;;5074066;28;20545;-81
2023/12/29 13:48:17;;;;;;;3.33;0.85;;;;;;;;;;5074201;28;20689;-81
2023/12/29 13:50:50;;;;;;;1.27;0.70;;;;;;;;;;5075269;28;20667;-81
2023/12/29 13:53:18;;;;;;;1.30;0.70;;;;;;;;;;5075912;28;20220;-81
2023/12/29 13:55:44;;;;;;;1.50;0.65;;;;;;;;;;5076333;28;20814;-80
2023/12/29 13:58:11;;;;;;;1.47;0.90;;;;;;;;;;5074576;28;20185;-82
2023/12/29 14:00:37;;;;;;;1.65;0.52;;;;;;;;;;5075283;28;20894;-82
2023/12/29 14:03:06;;;;;;;1.00;0.60;;;;;;;;;;5075399;28;20536;-84
2023/12/29 14:05:36;;;;;;;1.95;0.90;;;;;;;;;;5075172;28;20634;-84
2023/12/29 14:08:09;;;;;;;1.00;0.90;;;;;;;;;;5076183;28;20240;-84
2023/12/29 14:10:36;;;;;;;2.08;0.75;;;;;;;;;;5076539;28;20172;-84
2023/12/29 14:13:15;;;;;;;1.48;0.70;;;;;;;;;;5075447;28;20184;-84
2023/12/29 14:15:52;;;;;;;3.25;0.90;;;;;;;;;;5073908;28;20218;-84
2023/12/29 14:18:21;;;;;;;1.15;0.60;;;;;;;;;;5075335;28;20152;-84
2023/12/29 14:20:47;;;;;;;2.72;1.00;;;;;;;;;;5075302;28;20181;-84
2023/12/29 14:23:14;;;;;;;3.37;1.57;;;;;;;;;;5074856;28;20625;-84
2023/12/29 14:25:40;;;;;;;4.60;1.90;;;;;;;;;;5075289;28;20403;-85
2023/12/29 14:28:16;;;;;;;3.35;1.15;;;;;;;;;;5073639;28;20181;-85
2023/12/29 14:30:42;;;;;;;1.85;0.90;;;;;;;;;;5073977;28;20184;-84
2023/12/29 14:33:08;;;;;;;1.70;1.07;;;;;;;;;;5074545;28;20536;-84
2023/12/29 14:35:34;;;;;;;4.03;1.13;;;;;;;;;;5075008;28;20462;-85
2023/12/29 14:38:00;;;;;;;2.08;0.85;;;;;;;;;;5074895;28;20552;-85
2023/12/29 14:40:26;;;;;;;2.22;1.00;;;;;;;;;;5074946;28;20204;-85
2023/12/29 14:42:52;;;;;;;1.70;1.27;;;;;;;;;;5073828;28;20211;-85